createdAt,value
2018-09-13T00:00:27.805Z,12.27
2018-09-13T00:02:55.241Z,11.93
2018-09-13T00:05:25.359Z,11.97
2018-09-13T00:07:52.819Z,12.93
2018-09-13T00:10:20.214Z,12.53
2018-09-13T00:12:47.643Z,12.97
2018-09-13T00:15:15.068Z,11.83
2018-09-13T00:17:45.955Z,12.60
2018-09-13T00:20:13.406Z,11.93
2018-09-13T00:22:40.851Z,12.07
2018-09-13T00:25:08.321Z,12.57
2018-09-13T00:27:36.000Z,11.83
2018-09-13T00:30:03.619Z,14.87
2018-09-13T00:32:31.072Z,14.13
2018-09-13T00:34:58.560Z,13.37
2018-09-13T00:37:26.018Z,11.80
2018-09-13T00:39:53.437Z,10.73
2018-09-13T00:42:20.875Z,12.70
2018-09-13T00:44:48.340Z,12.57
2018-09-13T00:47:15.779Z,10.63
2018-09-13T00:49:43.415Z,10.03
2018-09-13T00:52:10.903Z,12.40
2018-09-13T00:54:39.698Z,10.97
2018-09-13T00:57:07.369Z,9.77
2018-09-13T00:59:34.814Z,8.97
2018-09-13T01:02:02.246Z,8.57
2018-09-13T01:04:29.670Z,9.23
2018-09-13T01:06:57.135Z,8.60
2018-09-13T01:09:25.563Z,9.60
2018-09-13T01:11:52.942Z,7.93
2018-09-13T01:14:20.320Z,8.47
2018-09-13T01:16:47.719Z,11.53
2018-09-13T01:19:15.724Z,11.67
2018-09-13T01:21:43.220Z,11.53
2018-09-13T01:24:10.608Z,12.93
2018-09-13T01:26:37.935Z,11.83
2018-09-13T01:29:06.132Z,12.40
2018-09-13T01:31:34.996Z,12.23
2018-09-13T01:34:03.341Z,13.63
2018-09-13T01:36:31.722Z,14.43
2018-09-13T01:38:59.312Z,11.00
2018-09-13T01:41:26.667Z,10.43
2018-09-13T01:43:54.095Z,9.00
2018-09-13T01:46:21.483Z,11.63
2018-09-13T01:48:48.831Z,10.53
2018-09-13T01:51:16.167Z,10.30
2018-09-13T01:53:43.490Z,10.43
2018-09-13T01:56:10.839Z,9.37
2018-09-13T01:58:38.183Z,10.60
2018-09-13T02:01:05.502Z,9.67
2018-09-13T02:03:32.915Z,13.20
2018-09-13T02:06:00.285Z,10.73
2018-09-13T02:08:28.400Z,8.83
2018-09-13T02:10:56.585Z,14.60
2018-09-13T02:13:24.350Z,10.63
2018-09-13T02:15:52.091Z,10.23
2018-09-13T02:18:19.821Z,10.30
2018-09-13T02:20:47.203Z,16.03
2018-09-13T02:23:14.530Z,14.47
2018-09-13T02:25:41.978Z,11.07
2018-09-13T02:28:09.295Z,15.23
2018-09-13T02:30:36.648Z,10.40
2018-09-13T02:33:04.006Z,15.27
2018-09-13T02:35:32.121Z,11.43
2018-09-13T02:37:59.496Z,10.77
2018-09-13T02:40:26.835Z,12.30
2018-09-13T02:42:54.335Z,13.00
2018-09-13T02:45:21.835Z,11.47
2018-09-13T02:47:49.200Z,11.50
2018-09-13T02:50:16.543Z,13.30
2018-09-13T02:52:44.028Z,14.17
2018-09-13T02:55:11.386Z,15.40
2018-09-13T02:57:38.776Z,13.27
2018-09-13T03:00:06.575Z,13.57
2018-09-13T03:02:34.003Z,15.80
2018-09-13T03:05:03.294Z,16.43
2018-09-13T03:07:31.592Z,13.23
2018-09-13T03:10:00.003Z,11.70
2018-09-13T03:12:28.097Z,14.07
2018-09-13T03:14:55.524Z,12.93
2018-09-13T03:17:22.927Z,14.60
2018-09-13T03:19:50.244Z,12.60
2018-09-13T03:22:17.584Z,14.33
2018-09-13T03:24:44.938Z,14.23
2018-09-13T03:27:12.246Z,12.60
2018-09-13T03:29:39.646Z,14.60
2018-09-13T03:32:06.931Z,16.80
2018-09-13T03:34:34.749Z,15.23
2018-09-13T03:37:02.145Z,14.67
2018-09-13T03:39:29.536Z,15.20
2018-09-13T03:41:56.880Z,16.30
2018-09-13T03:44:24.195Z,14.77
2018-09-13T03:46:51.547Z,16.00
2018-09-13T03:49:21.185Z,14.97
2018-09-13T03:51:48.518Z,16.47
2018-09-13T03:54:15.822Z,18.67
2018-09-13T03:56:43.225Z,19.17
2018-09-13T03:59:10.571Z,18.70
2018-09-13T04:01:37.916Z,16.90
2018-09-13T04:04:08.192Z,22.90
2018-09-13T04:06:35.513Z,24.03
2018-09-13T04:09:03.874Z,23.30
2018-09-13T04:11:31.183Z,27.23
2018-09-13T04:13:58.589Z,25.30
2018-09-13T04:16:25.909Z,27.03
2018-09-13T04:18:53.281Z,21.90
2018-09-13T04:21:21.632Z,31.27
2018-09-13T04:23:49.107Z,24.07
2018-09-13T04:26:16.411Z,23.73
2018-09-13T04:28:43.760Z,27.90
2018-09-13T04:31:11.202Z,26.43
2018-09-13T04:33:38.555Z,27.67
2018-09-13T04:36:06.016Z,25.43
2018-09-13T04:38:33.255Z,25.17
2018-09-13T04:41:00.615Z,21.63
2018-09-13T04:43:28.123Z,32.90
2018-09-13T04:45:55.628Z,24.47
2018-09-13T04:48:23.049Z,30.57
2018-09-13T04:50:50.358Z,27.53
2018-09-13T04:53:17.714Z,25.40
2018-09-13T04:55:45.407Z,30.07
2018-09-13T04:58:13.035Z,30.80
2018-09-13T05:00:40.615Z,25.13
2018-09-13T05:03:07.943Z,28.37
2018-09-13T05:05:35.364Z,26.53
2018-09-13T05:08:02.776Z,31.00
2018-09-13T05:10:30.067Z,30.20
2018-09-13T05:12:57.535Z,27.03
2018-09-13T05:15:26.371Z,30.20
2018-09-13T05:17:53.711Z,27.70
2018-09-13T05:20:21.067Z,35.60
2018-09-13T05:22:48.592Z,34.70
2018-09-13T05:25:15.903Z,31.87
2018-09-13T05:27:43.336Z,35.57
2018-09-13T05:30:10.670Z,32.70
2018-09-13T05:32:38.028Z,30.57
2018-09-13T05:35:05.515Z,30.73
2018-09-13T05:37:32.831Z,29.67
2018-09-13T05:40:00.151Z,28.27
2018-09-13T05:42:27.472Z,28.03
2018-09-13T05:44:54.824Z,24.90
2018-09-13T05:47:22.163Z,28.03
2018-09-13T05:49:49.523Z,24.50
2018-09-13T05:52:16.879Z,30.30
2018-09-13T05:54:44.325Z,26.17
2018-09-13T05:57:11.639Z,27.10
2018-09-13T05:59:38.947Z,33.17
2018-09-13T06:02:06.351Z,33.00
2018-09-13T06:04:33.926Z,33.40
2018-09-13T06:07:01.230Z,32.90
2018-09-13T06:09:28.584Z,36.13
2018-09-13T06:11:55.914Z,35.50
2018-09-13T06:14:23.206Z,29.00
2018-09-13T06:16:50.551Z,33.97
2018-09-13T06:19:17.855Z,26.83
2018-09-13T06:21:45.351Z,25.97
2018-09-13T06:24:12.785Z,28.90
2018-09-13T06:26:40.175Z,25.60
2018-09-13T06:29:07.544Z,29.13
2018-09-13T06:31:35.092Z,30.87
2018-09-13T06:34:02.971Z,31.20
2018-09-13T06:36:30.518Z,24.63
2018-09-13T06:38:57.875Z,22.30
2018-09-13T06:41:25.404Z,24.43
2018-09-13T06:43:52.931Z,25.07
2018-09-13T06:46:20.367Z,28.30
2018-09-13T06:48:47.744Z,22.77
2018-09-13T06:51:15.183Z,22.93
2018-09-13T06:53:42.695Z,25.23
2018-09-13T06:56:11.696Z,22.90
2018-09-13T06:58:39.083Z,16.43
2018-09-13T07:01:06.631Z,20.23
2018-09-13T07:03:34.008Z,23.73
2018-09-13T07:06:01.445Z,16.93
2018-09-13T07:08:29.439Z,16.40
2018-09-13T07:10:57.806Z,16.30
2018-09-13T07:13:25.395Z,19.00
2018-09-13T07:15:52.792Z,15.87
2018-09-13T07:18:20.283Z,13.57
2018-09-13T07:20:47.770Z,16.17
2018-09-13T07:23:15.185Z,13.90
2018-09-13T07:25:42.773Z,16.27
2018-09-13T07:28:10.518Z,20.13
2018-09-13T07:30:39.468Z,17.50
2018-09-13T07:33:07.570Z,16.40
2018-09-13T07:35:35.935Z,15.23
2018-09-13T07:38:05.796Z,17.63
2018-09-13T07:40:33.595Z,18.07
2018-09-13T07:43:01.244Z,19.30
2018-09-13T07:45:30.536Z,16.27
2018-09-13T07:47:58.089Z,18.27
2018-09-13T07:50:25.473Z,17.23
2018-09-13T07:52:53.161Z,19.57
2018-09-13T07:55:20.527Z,21.80
2018-09-13T07:57:51.103Z,20.30
2018-09-13T08:00:18.605Z,16.87
2018-09-13T08:02:46.033Z,21.43
2018-09-13T08:05:13.527Z,19.73
2018-09-13T08:07:40.868Z,14.43
2018-09-13T08:10:08.753Z,17.30
2018-09-13T08:12:39.785Z,17.07
2018-09-13T08:15:07.247Z,18.93
2018-09-13T08:17:34.664Z,18.80
2018-09-13T08:20:02.215Z,20.50
2018-09-13T08:22:29.675Z,16.60
2018-09-13T08:25:00.299Z,19.30
2018-09-13T08:27:27.764Z,19.33
2018-09-13T08:29:55.234Z,18.43
2018-09-13T08:32:22.709Z,17.63
2018-09-13T08:34:50.226Z,19.60
2018-09-13T08:37:19.473Z,17.70
2018-09-13T08:39:48.846Z,17.20
2018-09-13T08:42:16.255Z,20.10
2018-09-13T08:44:43.718Z,23.77
2018-09-13T08:47:11.157Z,20.33
2018-09-13T08:49:38.694Z,23.07
2018-09-13T08:52:06.073Z,23.67
2018-09-13T08:54:36.555Z,24.07
2018-09-13T08:57:03.833Z,26.80
2018-09-13T08:59:31.055Z,26.43
2018-09-13T09:01:58.354Z,27.20
2018-09-13T09:04:25.623Z,22.73
2018-09-13T09:06:52.849Z,23.37
2018-09-13T09:09:22.547Z,22.43
2018-09-13T09:11:49.798Z,20.20
2018-09-13T09:14:17.026Z,20.20
2018-09-13T09:16:44.272Z,22.20
2018-09-13T09:19:11.512Z,18.97
2018-09-13T09:21:39.110Z,19.97
2018-09-13T09:24:11.313Z,16.60
2018-09-13T09:26:38.586Z,21.60
2018-09-13T09:29:05.836Z,19.17
2018-09-13T09:31:33.035Z,18.43
2018-09-13T09:34:00.415Z,20.73
2018-09-13T09:36:27.643Z,19.63
2018-09-13T09:38:58.821Z,18.20
2018-09-13T09:41:26.152Z,22.07
2018-09-13T09:43:53.494Z,22.90
2018-09-13T09:46:20.764Z,21.13
2018-09-13T09:48:47.979Z,22.13
2018-09-13T09:51:15.183Z,21.37
2018-09-13T09:53:42.392Z,22.80
2018-09-13T09:56:12.593Z,22.57
2018-09-13T09:58:39.781Z,20.30
2018-09-13T10:01:12.838Z,22.27
2018-09-13T10:03:40.063Z,22.03
2018-09-13T10:06:07.718Z,24.53
2018-09-13T10:08:39.594Z,22.17
2018-09-13T10:11:06.891Z,22.97
2018-09-13T10:13:34.168Z,24.40
2018-09-13T10:16:07.062Z,22.60
2018-09-13T10:18:44.225Z,21.00
2018-09-13T10:21:17.117Z,17.17
2018-09-13T10:23:50.186Z,19.27
2018-09-13T10:26:23.096Z,22.67
2018-09-13T10:28:55.992Z,22.50
2018-09-13T10:31:28.981Z,23.33
2018-09-13T10:34:02.000Z,19.43
2018-09-13T10:36:34.938Z,14.13
2018-09-13T10:39:07.884Z,16.53
2018-09-13T10:41:40.739Z,12.10
2018-09-13T10:44:13.817Z,10.00
2018-09-13T10:46:41.121Z,10.60
2018-09-13T10:49:14.030Z,9.73
2018-09-13T10:51:47.010Z,10.80
2018-09-13T10:54:23.998Z,9.47
2018-09-13T10:56:51.257Z,10.90
2018-09-13T10:59:18.519Z,10.03
2018-09-13T11:01:45.845Z,9.00
2018-09-13T11:04:13.173Z,8.60
2018-09-13T11:06:44.552Z,10.53
2018-09-13T11:09:13.803Z,15.73
2018-09-13T11:11:41.828Z,12.50
2018-09-13T11:14:12.902Z,13.67
2018-09-13T11:16:40.128Z,13.70
2018-09-13T11:19:09.000Z,14.17
2018-09-13T11:21:38.726Z,15.10
2018-09-13T11:24:06.082Z,14.80
2018-09-13T11:26:33.395Z,15.40
2018-09-13T11:29:00.669Z,13.10
2018-09-13T11:31:27.924Z,11.07
2018-09-13T11:33:55.226Z,9.10
2018-09-13T11:36:24.517Z,10.43
2018-09-13T11:38:51.741Z,10.30
2018-09-13T11:41:18.994Z,9.50
2018-09-13T11:43:46.227Z,7.97
2018-09-13T11:46:13.487Z,8.13
2018-09-13T11:48:40.728Z,9.00
2018-09-13T11:51:12.867Z,10.10
2018-09-13T11:53:39.924Z,12.13
2018-09-13T11:56:07.217Z,13.40
2018-09-13T11:58:34.534Z,12.27
2018-09-13T12:01:01.798Z,12.77
2018-09-13T12:03:29.081Z,11.70
2018-09-13T12:05:57.879Z,12.13
2018-09-13T12:08:25.151Z,11.60
2018-09-13T12:10:52.394Z,12.03
2018-09-13T12:13:19.664Z,12.77
2018-09-13T12:15:46.891Z,12.20
2018-09-13T12:18:14.171Z,21.63
2018-09-13T12:20:44.520Z,18.53
2018-09-13T12:23:11.754Z,17.23
2018-09-13T12:25:38.994Z,14.37
2018-09-13T12:28:06.507Z,13.40
2018-09-13T12:30:33.719Z,14.30
2018-09-13T12:33:00.947Z,16.40
2018-09-13T12:35:33.151Z,17.03
2018-09-13T12:38:00.371Z,20.03
2018-09-13T12:40:27.579Z,16.87
2018-09-13T12:42:54.861Z,17.13
2018-09-13T12:45:22.156Z,18.50
2018-09-13T12:47:49.374Z,18.33
2018-09-13T12:50:16.900Z,17.77
2018-09-13T12:52:44.126Z,17.90
2018-09-13T12:55:11.332Z,16.73
2018-09-13T12:57:38.601Z,15.50
2018-09-13T13:00:05.890Z,14.90
2018-09-13T13:02:33.131Z,11.03
2018-09-13T13:05:00.346Z,10.83
2018-09-13T13:07:27.591Z,10.87
2018-09-13T13:09:54.814Z,9.23
2018-09-13T13:12:22.025Z,8.73
2018-09-13T13:14:49.246Z,17.87
2018-09-13T13:17:16.469Z,16.83
2018-09-13T13:19:43.704Z,15.67
2018-09-13T13:22:11.000Z,14.23
2018-09-13T13:24:38.238Z,16.33
2018-09-13T13:27:05.627Z,18.97
2018-09-13T13:29:32.851Z,17.03
2018-09-13T13:32:00.071Z,14.47
2018-09-13T13:34:27.307Z,15.27
2018-09-13T13:36:54.559Z,14.13
2018-09-13T13:39:21.827Z,14.53
2018-09-13T13:41:49.069Z,15.73
2018-09-13T13:44:16.316Z,17.20
2018-09-13T13:46:43.594Z,16.73
2018-09-13T13:49:11.063Z,13.73
2018-09-13T13:51:38.581Z,17.17
2018-09-13T13:54:06.088Z,14.30
2018-09-13T13:56:33.578Z,10.67
2018-09-13T13:59:01.141Z,11.70
2018-09-13T14:01:28.626Z,11.43
2018-09-13T14:03:56.126Z,11.30
2018-09-13T14:06:23.551Z,9.57
2018-09-13T14:08:51.064Z,11.07
2018-09-13T14:11:18.515Z,11.53
2018-09-13T14:13:45.922Z,11.80
2018-09-13T14:16:13.372Z,10.97
2018-09-13T14:18:40.815Z,11.60
2018-09-13T14:21:08.411Z,11.77
2018-09-13T14:23:35.877Z,12.50
2018-09-13T14:26:03.327Z,10.90
2018-09-13T14:28:30.759Z,10.20
2018-09-13T14:30:58.479Z,12.00
2018-09-13T14:33:25.909Z,12.53
2018-09-13T14:35:54.334Z,12.40
2018-09-13T14:38:26.984Z,13.73
2018-09-13T14:40:54.502Z,11.60
2018-09-13T14:43:22.727Z,11.97
2018-09-13T14:45:50.222Z,13.60
2018-09-13T14:48:17.576Z,13.73
2018-09-13T14:50:44.974Z,13.93
2018-09-13T14:53:12.407Z,14.20
2018-09-13T14:55:41.882Z,12.53
2018-09-13T14:58:09.338Z,13.17
2018-09-13T15:00:36.831Z,13.20
2018-09-13T15:03:04.346Z,12.73
2018-09-13T15:05:31.855Z,12.80
2018-09-13T15:08:04.420Z,14.03
2018-09-13T15:10:31.851Z,17.53
2018-09-13T15:12:59.385Z,15.83
2018-09-13T15:15:26.781Z,13.43
2018-09-13T15:17:54.200Z,14.30
2018-09-13T15:20:21.655Z,13.23
2018-09-13T15:22:54.084Z,12.30
2018-09-13T15:25:21.527Z,14.63
2018-09-13T15:27:49.006Z,13.53
2018-09-13T15:30:16.455Z,13.03
2018-09-13T15:32:43.893Z,12.90
2018-09-13T15:35:11.356Z,14.57
2018-09-13T15:37:40.115Z,14.30
2018-09-13T15:40:07.663Z,11.47
2018-09-13T15:42:35.075Z,11.93
2018-09-13T15:45:02.477Z,12.00
2018-09-13T15:47:30.067Z,12.47
2018-09-13T15:49:57.541Z,12.30
2018-09-13T15:52:28.664Z,12.93
2018-09-13T15:54:56.078Z,14.37
2018-09-13T15:57:23.535Z,13.00
2018-09-13T15:59:51.106Z,12.70
2018-09-13T16:02:18.540Z,12.63
2018-09-13T16:04:45.973Z,13.73
2018-09-13T16:07:13.384Z,12.57
2018-09-13T16:09:42.442Z,13.10
2018-09-13T16:12:09.868Z,14.03
2018-09-13T16:14:37.315Z,12.63
2018-09-13T16:17:04.831Z,11.57
2018-09-13T16:19:32.268Z,15.10
2018-09-13T16:21:59.811Z,14.03
2018-09-13T16:24:32.191Z,13.77
2018-09-13T16:26:59.801Z,12.20
2018-09-13T16:29:27.271Z,13.63
2018-09-13T16:31:54.735Z,13.30
2018-09-13T16:34:22.211Z,13.60
2018-09-13T16:36:59.458Z,13.50
2018-09-13T16:39:32.567Z,13.97
2018-09-13T16:42:05.704Z,11.10
2018-09-13T16:44:41.031Z,10.23
2018-09-13T16:47:16.139Z,9.83
2018-09-13T16:49:43.580Z,10.77
2018-09-13T16:52:11.197Z,9.70
2018-09-13T16:54:38.646Z,9.47
2018-09-13T16:57:10.785Z,9.33
2018-09-13T16:59:38.282Z,10.03
2018-09-13T17:02:06.985Z,9.60
2018-09-13T17:04:34.498Z,11.83
2018-09-13T17:07:02.054Z,12.33
2018-09-13T17:09:29.446Z,11.30
2018-09-13T17:11:59.395Z,11.87
2018-09-13T17:14:26.816Z,11.20
2018-09-13T17:16:54.273Z,11.53
2018-09-13T17:19:21.691Z,13.17
2018-09-13T17:21:49.164Z,12.07
2018-09-13T17:24:16.643Z,11.60
2018-09-13T17:26:44.176Z,12.70
2018-09-13T17:29:13.977Z,12.10
2018-09-13T17:31:41.423Z,12.03
2018-09-13T17:34:08.877Z,12.60
2018-09-13T17:36:36.356Z,12.83
2018-09-13T17:39:07.726Z,13.40
2018-09-13T17:41:39.289Z,13.50
2018-09-13T17:44:06.760Z,11.60
2018-09-13T17:46:34.154Z,13.10
2018-09-13T17:49:01.641Z,12.80
2018-09-13T17:51:29.063Z,12.33
2018-09-13T17:56:32.686Z,12.83
2018-09-13T17:58:59.987Z,11.97
2018-09-13T18:01:27.502Z,14.17
2018-09-13T18:03:54.967Z,12.13
2018-09-13T18:06:22.791Z,13.53
2018-09-13T18:08:54.900Z,16.77
2018-09-13T18:11:22.294Z,15.80
2018-09-13T18:13:50.046Z,16.30
2018-09-13T18:16:17.599Z,26.50
2018-09-13T18:18:45.031Z,19.07
2018-09-13T18:21:12.428Z,16.80
2018-09-13T18:23:41.828Z,15.23
2018-09-13T18:26:09.211Z,17.60
2018-09-13T18:28:36.694Z,15.63
2018-09-13T18:31:04.324Z,16.73
2018-09-13T18:33:31.883Z,16.90
2018-09-13T18:35:59.395Z,17.33
2018-09-13T18:38:31.708Z,17.90
2018-09-13T18:40:59.376Z,15.63
2018-09-13T18:43:26.845Z,16.13
2018-09-13T18:45:55.342Z,16.63
2018-09-13T18:48:22.751Z,18.33
2018-09-13T18:50:50.211Z,19.67
2018-09-13T18:53:21.355Z,16.83
2018-09-13T18:55:48.849Z,17.37
2018-09-13T18:58:16.315Z,17.90
2018-09-13T19:00:43.770Z,17.37
2018-09-13T19:03:11.186Z,16.93
2018-09-13T19:05:38.646Z,17.83
2018-09-13T19:08:12.266Z,16.33
2018-09-13T19:10:39.728Z,16.97
2018-09-13T19:13:07.183Z,15.37
2018-09-13T19:15:34.721Z,15.73
2018-09-13T19:18:02.116Z,15.30
2018-09-13T19:20:34.248Z,17.40
2018-09-13T19:23:01.743Z,16.30
2018-09-13T19:25:29.170Z,15.83
2018-09-13T19:27:56.600Z,15.20
2018-09-13T19:30:23.990Z,16.13
2018-09-13T19:32:51.438Z,15.17
2018-09-13T19:35:18.943Z,15.03
2018-09-13T19:37:48.863Z,16.07
2018-09-13T19:40:16.285Z,15.10
2018-09-13T19:42:43.919Z,15.63
2018-09-13T19:45:11.372Z,16.63
2018-09-13T19:47:38.858Z,16.27
2018-09-13T19:50:06.341Z,16.63
2018-09-13T19:52:37.624Z,16.10
2018-09-13T19:55:06.226Z,17.33
2018-09-13T19:57:33.687Z,15.13
2018-09-13T20:00:02.136Z,15.13
2018-09-13T20:02:29.650Z,15.50
2018-09-13T20:04:57.392Z,16.47
2018-09-13T20:07:29.196Z,15.33
2018-09-13T20:09:56.617Z,17.10
2018-09-13T20:12:24.204Z,17.40
2018-09-13T20:14:51.679Z,16.57
2018-09-13T20:17:19.258Z,16.80
2018-09-13T20:19:46.703Z,30.53
2018-09-13T20:22:18.232Z,20.00
2018-09-13T20:24:45.727Z,19.03
2018-09-13T20:27:13.202Z,16.80
2018-09-13T20:29:40.718Z,16.33
2018-09-13T20:32:08.154Z,16.53
2018-09-13T20:34:35.543Z,18.60
2018-09-13T20:37:03.014Z,21.57
2018-09-13T20:39:32.758Z,17.07
2018-09-13T20:42:00.268Z,18.20
2018-09-13T20:44:27.684Z,18.60
2018-09-13T20:46:55.124Z,18.73
2018-09-13T20:49:22.539Z,18.03
2018-09-13T20:51:50.029Z,17.50
2018-09-13T20:54:17.466Z,16.43
2018-09-13T20:56:44.918Z,17.60
2018-09-13T20:59:12.381Z,17.63
2018-09-13T21:01:39.787Z,20.10
2018-09-13T21:04:07.299Z,16.63
2018-09-13T21:06:34.741Z,17.40
2018-09-13T21:09:10.614Z,19.90
2018-09-13T21:11:38.067Z,16.63
2018-09-13T21:14:05.631Z,18.27
2018-09-13T21:16:33.108Z,15.73
2018-09-13T21:19:00.618Z,16.20
2018-09-13T21:21:28.131Z,16.97
2018-09-13T21:23:55.750Z,16.60
2018-09-13T21:26:23.171Z,19.00
2018-09-13T21:28:50.602Z,18.30
2018-09-13T21:31:18.018Z,17.77
2018-09-13T21:33:45.391Z,17.97
2018-09-13T21:36:12.862Z,17.37
2018-09-13T21:38:40.283Z,16.90
2018-09-13T21:41:07.690Z,17.30
2018-09-13T21:43:35.160Z,17.33
2018-09-13T21:46:02.684Z,17.80
2018-09-13T21:48:30.088Z,17.10
2018-09-13T21:50:57.599Z,16.47
2018-09-13T21:53:25.011Z,17.63
2018-09-13T21:55:52.439Z,16.23
2018-09-13T21:58:20.011Z,21.40
2018-09-13T22:00:47.474Z,19.17
2018-09-13T22:03:14.903Z,18.83
2018-09-13T22:05:42.313Z,16.03
2018-09-13T22:08:09.702Z,16.43
2018-09-13T22:10:37.115Z,19.87
2018-09-13T22:13:04.548Z,21.10
2018-09-13T22:15:31.987Z,21.33
2018-09-13T22:17:59.537Z,21.67
2018-09-13T22:20:26.978Z,24.17
2018-09-13T22:22:54.379Z,29.10
2018-09-13T22:25:21.826Z,20.47
2018-09-13T22:27:49.235Z,20.00
2018-09-13T22:30:16.778Z,19.10
2018-09-13T22:32:44.151Z,19.37
2018-09-13T22:35:11.559Z,18.20
2018-09-13T22:37:39.028Z,23.43
2018-09-13T22:40:06.698Z,21.30
2018-09-13T22:42:34.167Z,19.20
2018-09-13T22:45:02.608Z,19.23
2018-09-13T22:47:30.426Z,19.13
2018-09-13T22:49:57.851Z,18.93
2018-09-13T22:52:25.356Z,19.43
2018-09-13T22:54:52.787Z,20.60
2018-09-13T22:57:20.718Z,19.50
2018-09-13T22:59:48.123Z,19.97
2018-09-13T23:02:15.618Z,19.10
2018-09-13T23:04:43.039Z,21.93
2018-09-13T23:07:11.205Z,19.77
2018-09-13T23:09:38.587Z,22.20
2018-09-13T23:12:06.041Z,20.90
2018-09-13T23:14:36.251Z,19.93
2018-09-13T23:17:03.666Z,21.80
2018-09-13T23:19:31.088Z,18.40
2018-09-13T23:21:58.552Z,20.63
2018-09-13T23:24:26.016Z,20.83
2018-09-13T23:26:53.455Z,20.27
2018-09-13T23:29:21.297Z,22.43
2018-09-13T23:31:48.736Z,22.30
2018-09-13T23:34:16.283Z,22.07
2018-09-13T23:36:43.762Z,23.80
2018-09-13T23:39:11.332Z,21.67
2018-09-13T23:41:39.521Z,19.70
2018-09-13T23:44:06.967Z,20.73
2018-09-13T23:46:34.791Z,23.60
2018-09-13T23:49:02.315Z,20.33
2018-09-13T23:51:29.794Z,24.77
2018-09-13T23:53:57.334Z,19.73
2018-09-13T23:56:26.173Z,18.67
2018-09-13T23:58:53.721Z,20.60
